sensor_id;sensor_type;location;lat;lon;timestamp;P1;durP1;ratioP1;P2;durP2;ratioP2
18206;SDS011;9229;52.354;20.886;2024-01-15T00:02:18;15.00;;;7.90;;
18206;SDS011;9229;52.354;20.886;2024-01-15T00:07:24;18.67;;;9.02;;
18206;SDS011;9229;52.354;20.886;2024-01-15T00:12:26;13.63;;;7.65;;
18206;SDS011;9229;52.354;20.886;2024-01-15T00:17:28;16.25;;;7.93;;
18206;SDS011;9229;52.354;20.886;2024-01-15T00:22:31;11.30;;;7.57;;
18206;SDS011;9229;52.354;20.886;2024-01-15T00:27:35;12.23;;;8.10;;
18206;SDS011;9229;52.354;20.886;2024-01-15T00:32:38;12.55;;;7.55;;
18206;SDS011;9229;52.354;20.886;2024-01-15T00:37:44;16.58;;;8.05;;
18206;SDS011;9229;52.354;20.886;2024-01-15T00:42:46;12.23;;;8.48;;
18206;SDS011;9229;52.354;20.886;2024-01-15T00:47:48;18.77;;;9.25;;
18206;SDS011;9229;52.354;20.886;2024-01-15T00:52:51;19.08;;;10.25;;
18206;SDS011;9229;52.354;20.886;2024-01-15T00:57:53;13.38;;;9.10;;
18206;SDS011;9229;52.354;20.886;2024-01-15T01:02:55;16.23;;;9.32;;
18206;SDS011;9229;52.354;20.886;2024-01-15T01:07:59;14.55;;;9.35;;
18206;SDS011;9229;52.354;20.886;2024-01-15T01:13:01;15.85;;;9.80;;
18206;SDS011;9229;52.354;20.886;2024-01-15T01:18:04;16.40;;;9.18;;
18206;SDS011;9229;52.354;20.886;2024-01-15T01:23:07;23.33;;;10.63;;
18206;SDS011;9229;52.354;20.886;2024-01-15T01:28:09;19.52;;;10.98;;
18206;SDS011;9229;52.354;20.886;2024-01-15T01:33:11;20.85;;;10.70;;
18206;SDS011;9229;52.354;20.886;2024-01-15T01:38:14;23.88;;;12.70;;
18206;SDS011;9229;52.354;20.886;2024-01-15T01:43:16;18.58;;;11.50;;
18206;SDS011;9229;52.354;20.886;2024-01-15T01:48:20;20.17;;;11.10;;
18206;SDS011;9229;52.354;20.886;2024-01-15T01:53:26;24.08;;;10.93;;
18206;SDS011;9229;52.354;20.886;2024-01-15T01:58:29;16.70;;;10.88;;
18206;SDS011;9229;52.354;20.886;2024-01-15T02:03:32;26.10;;;11.30;;
18206;SDS011;9229;52.354;20.886;2024-01-15T02:08:36;26.17;;;11.50;;
18206;SDS011;9229;52.354;20.886;2024-01-15T02:13:38;20.83;;;11.38;;
18206;SDS011;9229;52.354;20.886;2024-01-15T02:18:41;20.60;;;11.63;;
18206;SDS011;9229;52.354;20.886;2024-01-15T02:23:45;22.83;;;12.25;;
18206;SDS011;9229;52.354;20.886;2024-01-15T02:28:49;22.63;;;11.60;;
18206;SDS011;9229;52.354;20.886;2024-01-15T02:33:52;24.00;;;11.98;;
18206;SDS011;9229;52.354;20.886;2024-01-15T02:38:56;19.33;;;10.55;;
18206;SDS011;9229;52.354;20.886;2024-01-15T02:44:00;27.48;;;12.85;;
18206;SDS011;9229;52.354;20.886;2024-01-15T02:49:02;20.77;;;11.43;;
18206;SDS011;9229;52.354;20.886;2024-01-15T02:54:05;22.70;;;11.93;;
18206;SDS011;9229;52.354;20.886;2024-01-15T02:59:07;22.13;;;12.13;;
18206;SDS011;9229;52.354;20.886;2024-01-15T03:04:09;22.30;;;11.07;;
18206;SDS011;9229;52.354;20.886;2024-01-15T03:09:12;24.75;;;13.35;;
18206;SDS011;9229;52.354;20.886;2024-01-15T03:14:14;15.82;;;10.80;;
18206;SDS011;9229;52.354;20.886;2024-01-15T03:19:18;22.13;;;12.95;;
18206;SDS011;9229;52.354;20.886;2024-01-15T03:24:22;24.98;;;12.38;;
18206;SDS011;9229;52.354;20.886;2024-01-15T03:29:24;27.85;;;12.38;;
18206;SDS011;9229;52.354;20.886;2024-01-15T03:34:27;20.60;;;12.32;;
18206;SDS011;9229;52.354;20.886;2024-01-15T03:39:32;21.83;;;12.35;;
18206;SDS011;9229;52.354;20.886;2024-01-15T03:44:34;18.98;;;11.40;;
18206;SDS011;9229;52.354;20.886;2024-01-15T03:49:36;19.63;;;11.68;;
18206;SDS011;9229;52.354;20.886;2024-01-15T03:54:39;24.48;;;12.32;;
18206;SDS011;9229;52.354;20.886;2024-01-15T03:59:41;22.75;;;12.30;;
18206;SDS011;9229;52.354;20.886;2024-01-15T04:04:43;16.23;;;11.52;;
18206;SDS011;9229;52.354;20.886;2024-01-15T04:09:48;24.85;;;11.27;;
18206;SDS011;9229;52.354;20.886;2024-01-15T04:14:49;20.50;;;10.82;;
18206;SDS011;9229;52.354;20.886;2024-01-15T04:19:51;24.08;;;12.60;;
18206;SDS011;9229;52.354;20.886;2024-01-15T04:24:55;24.33;;;12.13;;
18206;SDS011;9229;52.354;20.886;2024-01-15T04:29:57;16.83;;;10.00;;
18206;SDS011;9229;52.354;20.886;2024-01-15T04:35:02;21.20;;;11.00;;
18206;SDS011;9229;52.354;20.886;2024-01-15T04:40:07;22.52;;;12.13;;
18206;SDS011;9229;52.354;20.886;2024-01-15T04:45:09;22.27;;;11.38;;
18206;SDS011;9229;52.354;20.886;2024-01-15T04:50:11;19.90;;;10.13;;
18206;SDS011;9229;52.354;20.886;2024-01-15T04:55:16;20.90;;;10.35;;
18206;SDS011;9229;52.354;20.886;2024-01-15T05:00:18;18.38;;;11.00;;
18206;SDS011;9229;52.354;20.886;2024-01-15T05:05:20;19.65;;;9.35;;
18206;SDS011;9229;52.354;20.886;2024-01-15T05:10:23;19.50;;;10.15;;
18206;SDS011;9229;52.354;20.886;2024-01-15T05:15:26;16.65;;;10.20;;
18206;SDS011;9229;52.354;20.886;2024-01-15T05:20:28;19.80;;;10.40;;
18206;SDS011;9229;52.354;20.886;2024-01-15T05:25:31;18.33;;;10.68;;
18206;SDS011;9229;52.354;20.886;2024-01-15T05:30:33;19.88;;;10.05;;
18206;SDS011;9229;52.354;20.886;2024-01-15T05:35:35;30.02;;;13.05;;
18206;SDS011;9229;52.354;20.886;2024-01-15T05:40:39;22.67;;;11.02;;
18206;SDS011;9229;52.354;20.886;2024-01-15T05:45:42;20.40;;;10.68;;
18206;SDS011;9229;52.354;20.886;2024-01-15T05:50:45;20.83;;;11.43;;
18206;SDS011;9229;52.354;20.886;2024-01-15T05:55:48;21.83;;;10.82;;
18206;SDS011;9229;52.354;20.886;2024-01-15T06:00:50;13.20;;;8.93;;
18206;SDS011;9229;52.354;20.886;2024-01-15T06:05:52;20.92;;;10.05;;
18206;SDS011;9229;52.354;20.886;2024-01-15T06:10:57;21.00;;;10.82;;
18206;SDS011;9229;52.354;20.886;2024-01-15T06:16:01;17.88;;;9.43;;
18206;SDS011;9229;52.354;20.886;2024-01-15T06:21:13;18.67;;;11.10;;
18206;SDS011;9229;52.354;20.886;2024-01-15T06:26:17;18.95;;;10.15;;
18206;SDS011;9229;52.354;20.886;2024-01-15T06:31:20;18.05;;;10.10;;
18206;SDS011;9229;52.354;20.886;2024-01-15T06:36:22;15.57;;;9.82;;
18206;SDS011;9229;52.354;20.886;2024-01-15T06:41:25;18.85;;;9.93;;
18206;SDS011;9229;52.354;20.886;2024-01-15T06:46:29;14.20;;;9.75;;
18206;SDS011;9229;52.354;20.886;2024-01-15T06:51:35;17.23;;;9.98;;
18206;SDS011;9229;52.354;20.886;2024-01-15T06:56:39;16.90;;;9.30;;
18206;SDS011;9229;52.354;20.886;2024-01-15T07:01:42;16.83;;;10.07;;
18206;SDS011;9229;52.354;20.886;2024-01-15T07:06:46;16.92;;;10.50;;
18206;SDS011;9229;52.354;20.886;2024-01-15T07:11:50;13.02;;;8.85;;
18206;SDS011;9229;52.354;20.886;2024-01-15T07:16:52;21.38;;;11.43;;
18206;SDS011;9229;52.354;20.886;2024-01-15T07:21:54;17.60;;;10.43;;
18206;SDS011;9229;52.354;20.886;2024-01-15T07:26:59;22.67;;;12.13;;
18206;SDS011;9229;52.354;20.886;2024-01-15T07:32:01;19.45;;;10.63;;
18206;SDS011;9229;52.354;20.886;2024-01-15T07:37:03;19.92;;;10.73;;
18206;SDS011;9229;52.354;20.886;2024-01-15T07:42:07;15.15;;;9.70;;
18206;SDS011;9229;52.354;20.886;2024-01-15T07:47:09;24.85;;;12.02;;
18206;SDS011;9229;52.354;20.886;2024-01-15T07:52:11;16.38;;;9.82;;
18206;SDS011;9229;52.354;20.886;2024-01-15T07:57:17;15.57;;;9.40;;
18206;SDS011;9229;52.354;20.886;2024-01-15T08:02:19;17.65;;;8.60;;
18206;SDS011;9229;52.354;20.886;2024-01-15T08:07:21;15.25;;;8.77;;
18206;SDS011;9229;52.354;20.886;2024-01-15T08:12:25;13.98;;;8.88;;
18206;SDS011;9229;52.354;20.886;2024-01-15T08:17:27;13.20;;;8.60;;
18206;SDS011;9229;52.354;20.886;2024-01-15T08:22:29;14.80;;;9.32;;
18206;SDS011;9229;52.354;20.886;2024-01-15T08:27:33;13.10;;;8.82;;
18206;SDS011;9229;52.354;20.886;2024-01-15T08:32:35;15.65;;;8.90;;
18206;SDS011;9229;52.354;20.886;2024-01-15T08:37:41;14.35;;;8.35;;
18206;SDS011;9229;52.354;20.886;2024-01-15T08:42:44;12.75;;;8.32;;
18206;SDS011;9229;52.354;20.886;2024-01-15T08:47:49;12.23;;;6.82;;
18206;SDS011;9229;52.354;20.886;2024-01-15T08:52:51;13.27;;;7.20;;
18206;SDS011;9229;52.354;20.886;2024-01-15T08:57:56;9.95;;;6.97;;
18206;SDS011;9229;52.354;20.886;2024-01-15T09:02:58;15.02;;;8.60;;
18206;SDS011;9229;52.354;20.886;2024-01-15T09:08:00;11.38;;;7.20;;
18206;SDS011;9229;52.354;20.886;2024-01-15T09:13:03;10.20;;;7.13;;
18206;SDS011;9229;52.354;20.886;2024-01-15T09:18:05;8.93;;;7.07;;
18206;SDS011;9229;52.354;20.886;2024-01-15T09:23:08;12.13;;;8.23;;
18206;SDS011;9229;52.354;20.886;2024-01-15T09:28:12;13.60;;;8.30;;
18206;SDS011;9229;52.354;20.886;2024-01-15T09:33:14;12.73;;;8.07;;
18206;SDS011;9229;52.354;20.886;2024-01-15T09:38:16;16.00;;;7.70;;
18206;SDS011;9229;52.354;20.886;2024-01-15T09:43:21;10.52;;;7.35;;
18206;SDS011;9229;52.354;20.886;2024-01-15T09:48:23;12.82;;;7.03;;
18206;SDS011;9229;52.354;20.886;2024-01-15T09:53:25;17.15;;;8.23;;
18206;SDS011;9229;52.354;20.886;2024-01-15T09:58:29;7.82;;;6.25;;
18206;SDS011;9229;52.354;20.886;2024-01-15T10:03:32;10.07;;;6.82;;
18206;SDS011;9229;52.354;20.886;2024-01-15T10:08:35;12.50;;;6.13;;
18206;SDS011;9229;52.354;20.886;2024-01-15T10:13:42;7.63;;;5.78;;
18206;SDS011;9229;52.354;20.886;2024-01-15T10:18:45;8.07;;;6.05;;
18206;SDS011;9229;52.354;20.886;2024-01-15T10:23:47;7.63;;;6.00;;
18206;SDS011;9229;52.354;20.886;2024-01-15T10:28:52;9.65;;;5.53;;
18206;SDS011;9229;52.354;20.886;2024-01-15T10:33:54;11.43;;;6.18;;
18206;SDS011;9229;52.354;20.886;2024-01-15T10:39:04;7.70;;;6.13;;
18206;SDS011;9229;52.354;20.886;2024-01-15T10:44:09;10.20;;;5.88;;
18206;SDS011;9229;52.354;20.886;2024-01-15T10:49:11;9.88;;;6.20;;
18206;SDS011;9229;52.354;20.886;2024-01-15T10:54:13;12.55;;;7.43;;
18206;SDS011;9229;52.354;20.886;2024-01-15T10:59:17;13.38;;;6.55;;
18206;SDS011;9229;52.354;20.886;2024-01-15T11:04:21;11.27;;;7.03;;
18206;SDS011;9229;52.354;20.886;2024-01-15T11:09:27;10.35;;;5.70;;
18206;SDS011;9229;52.354;20.886;2024-01-15T11:14:34;8.60;;;6.22;;
18206;SDS011;9229;52.354;20.886;2024-01-15T11:19:42;7.57;;;5.43;;
18206;SDS011;9229;52.354;20.886;2024-01-15T11:24:45;12.25;;;7.05;;
18206;SDS011;9229;52.354;20.886;2024-01-15T11:29:49;14.25;;;6.35;;
18206;SDS011;9229;52.354;20.886;2024-01-15T11:35:05;11.02;;;6.80;;
18206;SDS011;9229;52.354;20.886;2024-01-15T11:40:09;6.80;;;6.07;;
18206;SDS011;9229;52.354;20.886;2024-01-15T11:45:13;10.32;;;6.88;;
18206;SDS011;9229;52.354;20.886;2024-01-15T11:50:19;9.80;;;6.50;;
18206;SDS011;9229;52.354;20.886;2024-01-15T11:55:26;8.88;;;6.75;;
18206;SDS011;9229;52.354;20.886;2024-01-15T12:00:31;11.30;;;6.30;;
18206;SDS011;9229;52.354;20.886;2024-01-15T12:05:36;6.38;;;5.63;;
18206;SDS011;9229;52.354;20.886;2024-01-15T12:10:39;10.07;;;6.40;;
18206;SDS011;9229;52.354;20.886;2024-01-15T12:15:43;8.60;;;5.60;;
18206;SDS011;9229;52.354;20.886;2024-01-15T12:20:46;9.32;;;6.15;;
18206;SDS011;9229;52.354;20.886;2024-01-15T12:25:48;10.70;;;6.50;;
18206;SDS011;9229;52.354;20.886;2024-01-15T12:30:52;9.95;;;6.63;;
18206;SDS011;9229;52.354;20.886;2024-01-15T12:35:54;8.13;;;6.65;;
18206;SDS011;9229;52.354;20.886;2024-01-15T12:40:57;10.60;;;6.47;;
18206;SDS011;9229;52.354;20.886;2024-01-15T12:46:00;13.45;;;6.80;;
18206;SDS011;9229;52.354;20.886;2024-01-15T12:51:05;11.75;;;7.72;;
18206;SDS011;9229;52.354;20.886;2024-01-15T12:56:07;12.52;;;6.88;;
18206;SDS011;9229;52.354;20.886;2024-01-15T13:01:15;10.40;;;7.43;;
18206;SDS011;9229;52.354;20.886;2024-01-15T13:06:17;10.65;;;6.75;;
18206;SDS011;9229;52.354;20.886;2024-01-15T13:11:20;9.00;;;6.68;;
18206;SDS011;9229;52.354;20.886;2024-01-15T13:16:23;9.40;;;6.68;;
18206;SDS011;9229;52.354;20.886;2024-01-15T13:21:27;14.38;;;6.93;;
18206;SDS011;9229;52.354;20.886;2024-01-15T13:26:31;11.77;;;6.05;;
18206;SDS011;9229;52.354;20.886;2024-01-15T13:31:38;6.00;;;5.32;;
18206;SDS011;9229;52.354;20.886;2024-01-15T13:36:40;8.02;;;6.30;;
18206;SDS011;9229;52.354;20.886;2024-01-15T13:41:42;11.18;;;6.05;;
18206;SDS011;9229;52.354;20.886;2024-01-15T13:46:46;9.80;;;6.90;;
18206;SDS011;9229;52.354;20.886;2024-01-15T13:51:48;9.57;;;6.63;;
18206;SDS011;9229;52.354;20.886;2024-01-15T13:56:50;12.68;;;6.55;;
18206;SDS011;9229;52.354;20.886;2024-01-15T14:01:56;11.65;;;6.93;;
18206;SDS011;9229;52.354;20.886;2024-01-15T14:07:00;10.68;;;6.57;;
18206;SDS011;9229;52.354;20.886;2024-01-15T14:12:05;9.65;;;6.28;;
18206;SDS011;9229;52.354;20.886;2024-01-15T14:17:09;13.15;;;5.85;;
18206;SDS011;9229;52.354;20.886;2024-01-15T14:22:13;9.10;;;5.20;;
18206;SDS011;9229;52.354;20.886;2024-01-15T14:27:22;12.02;;;7.35;;
18206;SDS011;9229;52.354;20.886;2024-01-15T14:32:28;13.00;;;6.43;;
18206;SDS011;9229;52.354;20.886;2024-01-15T14:37:32;9.30;;;6.00;;
18206;SDS011;9229;52.354;20.886;2024-01-15T14:42:34;15.80;;;6.82;;
18206;SDS011;9229;52.354;20.886;2024-01-15T14:47:38;9.65;;;5.20;;
18206;SDS011;9229;52.354;20.886;2024-01-15T14:52:41;6.70;;;5.50;;
18206;SDS011;9229;52.354;20.886;2024-01-15T14:57:47;9.30;;;5.32;;
18206;SDS011;9229;52.354;20.886;2024-01-15T15:02:51;11.60;;;6.50;;
18206;SDS011;9229;52.354;20.886;2024-01-15T15:07:53;10.57;;;6.70;;
18206;SDS011;9229;52.354;20.886;2024-01-15T15:12:55;11.73;;;6.15;;
18206;SDS011;9229;52.354;20.886;2024-01-15T15:17:59;11.65;;;6.57;;
18206;SDS011;9229;52.354;20.886;2024-01-15T15:23:01;15.07;;;6.95;;
18206;SDS011;9229;52.354;20.886;2024-01-15T15:28:08;17.33;;;7.40;;
18206;SDS011;9229;52.354;20.886;2024-01-15T15:33:13;15.25;;;7.07;;
18206;SDS011;9229;52.354;20.886;2024-01-15T15:38:17;11.57;;;7.00;;
18206;SDS011;9229;52.354;20.886;2024-01-15T15:43:19;10.43;;;6.63;;
18206;SDS011;9229;52.354;20.886;2024-01-15T15:48:24;12.43;;;6.78;;
18206;SDS011;9229;52.354;20.886;2024-01-15T15:53:28;12.20;;;5.97;;
18206;SDS011;9229;52.354;20.886;2024-01-15T15:58:30;5.88;;;4.97;;
18206;SDS011;9229;52.354;20.886;2024-01-15T16:03:34;13.48;;;6.03;;
18206;SDS011;9229;52.354;20.886;2024-01-15T16:08:36;21.25;;;7.60;;
18206;SDS011;9229;52.354;20.886;2024-01-15T16:13:38;17.20;;;6.75;;
18206;SDS011;9229;52.354;20.886;2024-01-15T16:18:48;14.85;;;8.43;;
18206;SDS011;9229;52.354;20.886;2024-01-15T16:23:57;14.60;;;8.07;;
18206;SDS011;9229;52.354;20.886;2024-01-15T16:29:02;17.17;;;7.55;;
18206;SDS011;9229;52.354;20.886;2024-01-15T16:34:06;8.52;;;5.97;;
18206;SDS011;9229;52.354;20.886;2024-01-15T16:39:08;10.15;;;5.82;;
18206;SDS011;9229;52.354;20.886;2024-01-15T16:44:11;13.38;;;6.47;;
18206;SDS011;9229;52.354;20.886;2024-01-15T16:49:17;10.15;;;5.90;;
18206;SDS011;9229;52.354;20.886;2024-01-15T16:54:21;12.57;;;7.13;;
18206;SDS011;9229;52.354;20.886;2024-01-15T16:59:24;8.90;;;4.30;;
18206;SDS011;9229;52.354;20.886;2024-01-15T17:04:27;5.57;;;3.75;;
18206;SDS011;9229;52.354;20.886;2024-01-15T17:09:30;16.30;;;5.82;;
18206;SDS011;9229;52.354;20.886;2024-01-15T17:14:31;6.28;;;4.38;;
18206;SDS011;9229;52.354;20.886;2024-01-15T17:19:35;15.57;;;6.43;;
18206;SDS011;9229;52.354;20.886;2024-01-15T17:24:37;8.73;;;4.68;;
18206;SDS011;9229;52.354;20.886;2024-01-15T17:29:39;4.95;;;4.13;;
18206;SDS011;9229;52.354;20.886;2024-01-15T17:34:42;5.00;;;3.80;;
18206;SDS011;9229;52.354;20.886;2024-01-15T17:39:46;5.78;;;5.05;;
18206;SDS011;9229;52.354;20.886;2024-01-15T17:44:48;9.68;;;4.78;;
18206;SDS011;9229;52.354;20.886;2024-01-15T17:49:54;8.68;;;5.63;;
18206;SDS011;9229;52.354;20.886;2024-01-15T17:54:56;9.13;;;6.28;;
18206;SDS011;9229;52.354;20.886;2024-01-15T17:59:58;5.75;;;4.03;;
18206;SDS011;9229;52.354;20.886;2024-01-15T18:05:02;6.20;;;4.32;;
18206;SDS011;9229;52.354;20.886;2024-01-15T18:10:05;2.47;;;2.28;;
18206;SDS011;9229;52.354;20.886;2024-01-15T18:15:08;3.70;;;3.45;;
18206;SDS011;9229;52.354;20.886;2024-01-15T18:20:13;2.83;;;2.63;;
18206;SDS011;9229;52.354;20.886;2024-01-15T18:25:15;3.78;;;3.28;;
18206;SDS011;9229;52.354;20.886;2024-01-15T18:30:17;7.18;;;3.72;;
18206;SDS011;9229;52.354;20.886;2024-01-15T18:35:21;4.68;;;4.20;;
18206;SDS011;9229;52.354;20.886;2024-01-15T18:40:24;4.80;;;4.00;;
18206;SDS011;9229;52.354;20.886;2024-01-15T18:45:26;14.05;;;6.55;;
18206;SDS011;9229;52.354;20.886;2024-01-15T18:50:32;7.32;;;4.78;;
18206;SDS011;9229;52.354;20.886;2024-01-15T18:55:35;3.90;;;3.60;;
18206;SDS011;9229;52.354;20.886;2024-01-15T19:00:38;4.85;;;3.22;;
18206;SDS011;9229;52.354;20.886;2024-01-15T19:05:41;4.00;;;3.45;;
18206;SDS011;9229;52.354;20.886;2024-01-15T19:10:44;4.07;;;3.08;;
18206;SDS011;9229;52.354;20.886;2024-01-15T19:15:47;3.80;;;3.55;;
18206;SDS011;9229;52.354;20.886;2024-01-15T19:20:53;5.65;;;3.38;;
18206;SDS011;9229;52.354;20.886;2024-01-15T19:25:55;3.45;;;3.30;;
18206;SDS011;9229;52.354;20.886;2024-01-15T19:31:00;4.70;;;3.50;;
18206;SDS011;9229;52.354;20.886;2024-01-15T19:36:03;7.45;;;5.18;;
18206;SDS011;9229;52.354;20.886;2024-01-15T19:41:06;3.55;;;3.28;;
18206;SDS011;9229;52.354;20.886;2024-01-15T19:46:08;3.65;;;3.50;;
18206;SDS011;9229;52.354;20.886;2024-01-15T19:51:17;5.68;;;4.85;;
18206;SDS011;9229;52.354;20.886;2024-01-15T19:56:20;3.95;;;3.58;;
18206;SDS011;9229;52.354;20.886;2024-01-15T20:01:22;3.40;;;3.15;;
18206;SDS011;9229;52.354;20.886;2024-01-15T20:06:27;4.90;;;3.95;;
18206;SDS011;9229;52.354;20.886;2024-01-15T20:11:29;3.97;;;3.67;;
18206;SDS011;9229;52.354;20.886;2024-01-15T20:16:32;3.90;;;3.42;;
18206;SDS011;9229;52.354;20.886;2024-01-15T20:21:35;5.97;;;3.88;;
18206;SDS011;9229;52.354;20.886;2024-01-15T20:26:37;11.02;;;3.63;;
18206;SDS011;9229;52.354;20.886;2024-01-15T20:31:39;3.53;;;2.80;;
18206;SDS011;9229;52.354;20.886;2024-01-15T20:36:45;3.28;;;2.97;;
18206;SDS011;9229;52.354;20.886;2024-01-15T20:41:48;6.47;;;3.10;;
18206;SDS011;9229;52.354;20.886;2024-01-15T20:46:51;4.85;;;3.83;;
18206;SDS011;9229;52.354;20.886;2024-01-15T20:51:56;3.30;;;2.22;;
18206;SDS011;9229;52.354;20.886;2024-01-15T20:56:59;2.50;;;2.42;;
18206;SDS011;9229;52.354;20.886;2024-01-15T21:02:04;2.38;;;2.17;;
18206;SDS011;9229;52.354;20.886;2024-01-15T21:07:08;3.70;;;3.25;;
18206;SDS011;9229;52.354;20.886;2024-01-15T21:12:10;2.88;;;2.67;;
18206;SDS011;9229;52.354;20.886;2024-01-15T21:17:12;2.45;;;2.35;;
18206;SDS011;9229;52.354;20.886;2024-01-15T21:22:15;2.38;;;2.17;;
18206;SDS011;9229;52.354;20.886;2024-01-15T21:27:19;3.92;;;3.00;;
18206;SDS011;9229;52.354;20.886;2024-01-15T21:32:21;3.35;;;2.88;;
18206;SDS011;9229;52.354;20.886;2024-01-15T21:37:26;3.55;;;2.40;;
18206;SDS011;9229;52.354;20.886;2024-01-15T21:42:31;2.42;;;2.20;;
18206;SDS011;9229;52.354;20.886;2024-01-15T21:47:35;3.75;;;3.25;;
18206;SDS011;9229;52.354;20.886;2024-01-15T21:52:41;2.17;;;2.17;;
18206;SDS011;9229;52.354;20.886;2024-01-15T21:57:43;5.43;;;2.70;;
18206;SDS011;9229;52.354;20.886;2024-01-15T22:02:46;2.95;;;2.72;;
18206;SDS011;9229;52.354;20.886;2024-01-15T22:07:52;8.77;;;2.58;;
18206;SDS011;9229;52.354;20.886;2024-01-15T22:12:54;2.63;;;2.47;;
18206;SDS011;9229;52.354;20.886;2024-01-15T22:17:59;2.95;;;2.83;;
18206;SDS011;9229;52.354;20.886;2024-01-15T22:23:04;5.75;;;3.38;;
18206;SDS011;9229;52.354;20.886;2024-01-15T22:28:06;4.28;;;2.65;;
18206;SDS011;9229;52.354;20.886;2024-01-15T22:33:08;2.80;;;2.42;;
18206;SDS011;9229;52.354;20.886;2024-01-15T22:38:23;2.70;;;2.60;;
18206;SDS011;9229;52.354;20.886;2024-01-15T22:43:25;3.03;;;2.83;;
18206;SDS011;9229;52.354;20.886;2024-01-15T22:48:27;5.82;;;3.25;;
18206;SDS011;9229;52.354;20.886;2024-01-15T22:53:34;4.40;;;4.00;;
18206;SDS011;9229;52.354;20.886;2024-01-15T22:58:37;3.28;;;3.05;;
18206;SDS011;9229;52.354;20.886;2024-01-15T23:03:40;5.68;;;3.45;;
18206;SDS011;9229;52.354;20.886;2024-01-15T23:08:44;6.07;;;4.13;;
18206;SDS011;9229;52.354;20.886;2024-01-15T23:13:47;8.15;;;3.28;;
18206;SDS011;9229;52.354;20.886;2024-01-15T23:18:49;15.57;;;4.50;;
18206;SDS011;9229;52.354;20.886;2024-01-15T23:23:53;6.85;;;4.30;;
18206;SDS011;9229;52.354;20.886;2024-01-15T23:28:55;9.27;;;4.93;;
18206;SDS011;9229;52.354;20.886;2024-01-15T23:33:58;17.80;;;7.35;;
18206;SDS011;9229;52.354;20.886;2024-01-15T23:39:02;19.42;;;8.13;;
18206;SDS011;9229;52.354;20.886;2024-01-15T23:44:08;18.67;;;8.63;;
18206;SDS011;9229;52.354;20.886;2024-01-15T23:49:17;14.73;;;7.47;;
18206;SDS011;9229;52.354;20.886;2024-01-15T23:54:20;15.45;;;7.07;;
